sensor_id;sensor_type;location;lat;lon;timestamp;P1;durP1;ratioP1;P2;durP2;ratioP2
51288;SDS011;37372;52.294;5.152;2023-10-31T00:01:14;7.60;;;1.97;;
51288;SDS011;37372;52.294;5.152;2023-10-31T00:03:39;7.63;;;2.53;;
51288;SDS011;37372;52.294;5.152;2023-10-31T00:06:05;11.13;;;2.60;;
51288;SDS011;37372;52.294;5.152;2023-10-31T00:08:31;10.27;;;3.17;;
51288;SDS011;37372;52.294;5.152;2023-10-31T00:10:56;16.30;;;3.63;;
51288;SDS011;37372;52.294;5.152;2023-10-31T00:13:22;14.63;;;4.40;;
51288;SDS011;37372;52.294;5.152;2023-10-31T00:15:50;14.47;;;4.33;;
51288;SDS011;37372;52.294;5.152;2023-10-31T00:18:16;18.50;;;4.72;;
51288;SDS011;37372;52.294;5.152;2023-10-31T00:20:41;16.80;;;4.83;;
51288;SDS011;37372;52.294;5.152;2023-10-31T00:23:07;17.70;;;5.63;;
51288;SDS011;37372;52.294;5.152;2023-10-31T00:25:32;21.90;;;6.37;;
51288;SDS011;37372;52.294;5.152;2023-10-31T00:27:58;17.27;;;5.72;;
51288;SDS011;37372;52.294;5.152;2023-10-31T00:30:23;24.90;;;6.40;;
51288;SDS011;37372;52.294;5.152;2023-10-31T00:32:49;20.08;;;7.13;;
51288;SDS011;37372;52.294;5.152;2023-10-31T00:35:14;24.43;;;7.47;;
51288;SDS011;37372;52.294;5.152;2023-10-31T00:37:40;26.83;;;8.03;;
51288;SDS011;37372;52.294;5.152;2023-10-31T00:40:06;27.75;;;8.48;;
51288;SDS011;37372;52.294;5.152;2023-10-31T00:42:32;27.15;;;8.65;;
51288;SDS011;37372;52.294;5.152;2023-10-31T00:44:59;23.67;;;8.80;;
51288;SDS011;37372;52.294;5.152;2023-10-31T00:47:24;26.25;;;8.55;;
51288;SDS011;37372;52.294;5.152;2023-10-31T00:49:50;22.97;;;8.10;;
51288;SDS011;37372;52.294;5.152;2023-10-31T00:52:18;24.67;;;8.52;;
51288;SDS011;37372;52.294;5.152;2023-10-31T00:54:44;24.77;;;8.60;;
51288;SDS011;37372;52.294;5.152;2023-10-31T00:57:10;25.20;;;9.17;;
51288;SDS011;37372;52.294;5.152;2023-10-31T00:59:35;27.00;;;9.53;;
51288;SDS011;37372;52.294;5.152;2023-10-31T01:02:00;32.93;;;9.87;;
51288;SDS011;37372;52.294;5.152;2023-10-31T01:04:26;32.75;;;10.18;;
51288;SDS011;37372;52.294;5.152;2023-10-31T01:06:51;38.27;;;11.63;;
51288;SDS011;37372;52.294;5.152;2023-10-31T01:09:16;36.97;;;11.07;;
51288;SDS011;37372;52.294;5.152;2023-10-31T01:11:42;35.23;;;10.97;;
51288;SDS011;37372;52.294;5.152;2023-10-31T01:14:07;40.43;;;11.20;;
51288;SDS011;37372;52.294;5.152;2023-10-31T01:16:32;33.93;;;10.07;;
51288;SDS011;37372;52.294;5.152;2023-10-31T01:18:57;36.37;;;9.90;;
51288;SDS011;37372;52.294;5.152;2023-10-31T01:21:23;33.50;;;9.02;;
51288;SDS011;37372;52.294;5.152;2023-10-31T01:23:49;37.80;;;10.17;;
51288;SDS011;37372;52.294;5.152;2023-10-31T01:26:15;32.67;;;9.40;;
51288;SDS011;37372;52.294;5.152;2023-10-31T01:28:40;33.67;;;9.63;;
51288;SDS011;37372;52.294;5.152;2023-10-31T01:31:06;31.87;;;7.90;;
51288;SDS011;37372;52.294;5.152;2023-10-31T01:33:31;21.40;;;7.07;;
51288;SDS011;37372;52.294;5.152;2023-10-31T01:35:56;24.33;;;6.97;;
51288;SDS011;37372;52.294;5.152;2023-10-31T01:38:22;18.67;;;5.70;;
51288;SDS011;37372;52.294;5.152;2023-10-31T01:40:50;18.23;;;5.20;;
51288;SDS011;37372;52.294;5.152;2023-10-31T01:45:57;17.42;;;5.05;;
51288;SDS011;37372;52.294;5.152;2023-10-31T01:48:23;15.63;;;4.30;;
51288;SDS011;37372;52.294;5.152;2023-10-31T01:50:50;11.75;;;4.20;;
51288;SDS011;37372;52.294;5.152;2023-10-31T01:53:16;12.02;;;4.40;;
51288;SDS011;37372;52.294;5.152;2023-10-31T01:55:42;10.00;;;4.10;;
51288;SDS011;37372;52.294;5.152;2023-10-31T01:58:09;12.70;;;4.40;;
51288;SDS011;37372;52.294;5.152;2023-10-31T02:00:36;17.33;;;4.60;;
51288;SDS011;37372;52.294;5.152;2023-10-31T02:03:05;17.15;;;5.10;;
51288;SDS011;37372;52.294;5.152;2023-10-31T02:05:33;16.98;;;5.85;;
51288;SDS011;37372;52.294;5.152;2023-10-31T02:07:59;18.45;;;6.28;;
51288;SDS011;37372;52.294;5.152;2023-10-31T02:10:25;24.73;;;6.87;;
51288;SDS011;37372;52.294;5.152;2023-10-31T02:12:51;20.73;;;7.20;;
51288;SDS011;37372;52.294;5.152;2023-10-31T02:15:16;24.00;;;8.18;;
51288;SDS011;37372;52.294;5.152;2023-10-31T02:17:42;25.60;;;8.90;;
51288;SDS011;37372;52.294;5.152;2023-10-31T02:20:07;28.27;;;8.97;;
51288;SDS011;37372;52.294;5.152;2023-10-31T02:22:33;30.10;;;9.93;;
51288;SDS011;37372;52.294;5.152;2023-10-31T02:24:58;26.10;;;9.55;;
51288;SDS011;37372;52.294;5.152;2023-10-31T02:27:24;32.60;;;11.23;;
51288;SDS011;37372;52.294;5.152;2023-10-31T02:29:49;40.30;;;11.73;;
51288;SDS011;37372;52.294;5.152;2023-10-31T02:32:14;33.67;;;11.50;;
51288;SDS011;37372;52.294;5.152;2023-10-31T02:34:40;35.63;;;11.50;;
51288;SDS011;37372;52.294;5.152;2023-10-31T02:37:05;36.00;;;11.83;;
51288;SDS011;37372;52.294;5.152;2023-10-31T02:39:31;32.53;;;12.30;;
51288;SDS011;37372;52.294;5.152;2023-10-31T02:41:56;37.30;;;11.50;;
51288;SDS011;37372;52.294;5.152;2023-10-31T02:44:22;36.47;;;12.07;;
51288;SDS011;37372;52.294;5.152;2023-10-31T02:46:48;33.53;;;11.23;;
51288;SDS011;37372;52.294;5.152;2023-10-31T02:49:13;32.30;;;11.03;;
51288;SDS011;37372;52.294;5.152;2023-10-31T02:51:38;30.30;;;10.35;;
51288;SDS011;37372;52.294;5.152;2023-10-31T02:54:04;23.93;;;9.53;;
51288;SDS011;37372;52.294;5.152;2023-10-31T02:56:29;22.50;;;8.63;;
51288;SDS011;37372;52.294;5.152;2023-10-31T02:58:55;28.10;;;8.20;;
51288;SDS011;37372;52.294;5.152;2023-10-31T03:01:20;18.85;;;7.00;;
51288;SDS011;37372;52.294;5.152;2023-10-31T03:03:46;15.93;;;6.63;;
51288;SDS011;37372;52.294;5.152;2023-10-31T03:06:11;16.80;;;6.20;;
51288;SDS011;37372;52.294;5.152;2023-10-31T03:08:37;16.60;;;5.90;;
51288;SDS011;37372;52.294;5.152;2023-10-31T03:11:02;14.13;;;5.10;;
51288;SDS011;37372;52.294;5.152;2023-10-31T03:13:27;11.43;;;4.80;;
51288;SDS011;37372;52.294;5.152;2023-10-31T03:15:53;11.05;;;4.40;;
51288;SDS011;37372;52.294;5.152;2023-10-31T03:18:19;9.10;;;3.47;;
51288;SDS011;37372;52.294;5.152;2023-10-31T03:20:45;8.33;;;3.10;;
51288;SDS011;37372;52.294;5.152;2023-10-31T03:23:11;6.78;;;2.70;;
51288;SDS011;37372;52.294;5.152;2023-10-31T03:25:38;4.50;;;2.08;;
51288;SDS011;37372;52.294;5.152;2023-10-31T03:28:03;4.22;;;1.70;;
51288;SDS011;37372;52.294;5.152;2023-10-31T03:30:28;5.27;;;1.40;;
51288;SDS011;37372;52.294;5.152;2023-10-31T03:32:54;4.60;;;1.50;;
51288;SDS011;37372;52.294;5.152;2023-10-31T03:35:20;4.63;;;1.27;;
51288;SDS011;37372;52.294;5.152;2023-10-31T03:37:45;3.78;;;1.48;;
51288;SDS011;37372;52.294;5.152;2023-10-31T03:40:11;3.30;;;1.00;;
51288;SDS011;37372;52.294;5.152;2023-10-31T03:42:36;1.65;;;1.00;;
51288;SDS011;37372;52.294;5.152;2023-10-31T03:45:01;3.90;;;0.93;;
51288;SDS011;37372;52.294;5.152;2023-10-31T03:47:27;4.90;;;0.90;;
51288;SDS011;37372;52.294;5.152;2023-10-31T03:49:53;2.60;;;0.80;;
51288;SDS011;37372;52.294;5.152;2023-10-31T03:52:18;4.03;;;0.98;;
51288;SDS011;37372;52.294;5.152;2023-10-31T03:54:45;2.85;;;0.57;;
51288;SDS011;37372;52.294;5.152;2023-10-31T03:57:10;3.97;;;0.70;;
51288;SDS011;37372;52.294;5.152;2023-10-31T03:59:37;3.23;;;0.70;;
51288;SDS011;37372;52.294;5.152;2023-10-31T04:02:02;3.80;;;0.80;;
51288;SDS011;37372;52.294;5.152;2023-10-31T04:04:28;3.13;;;0.60;;
51288;SDS011;37372;52.294;5.152;2023-10-31T04:06:54;3.03;;;0.80;;
51288;SDS011;37372;52.294;5.152;2023-10-31T04:09:19;3.38;;;0.70;;
51288;SDS011;37372;52.294;5.152;2023-10-31T04:11:44;8.10;;;1.00;;
51288;SDS011;37372;52.294;5.152;2023-10-31T04:14:10;3.80;;;0.80;;
51288;SDS011;37372;52.294;5.152;2023-10-31T04:16:39;1.37;;;0.63;;
51288;SDS011;37372;52.294;5.152;2023-10-31T04:19:10;4.78;;;0.68;;
51288;SDS011;37372;52.294;5.152;2023-10-31T04:21:39;3.55;;;0.60;;
51288;SDS011;37372;52.294;5.152;2023-10-31T04:24:04;3.15;;;0.70;;
51288;SDS011;37372;52.294;5.152;2023-10-31T04:26:30;4.83;;;1.00;;
51288;SDS011;37372;52.294;5.152;2023-10-31T04:28:55;4.27;;;0.70;;
51288;SDS011;37372;52.294;5.152;2023-10-31T04:31:20;2.10;;;0.70;;
51288;SDS011;37372;52.294;5.152;2023-10-31T04:33:46;4.00;;;0.98;;
51288;SDS011;37372;52.294;5.152;2023-10-31T04:36:11;6.07;;;0.83;;
51288;SDS011;37372;52.294;5.152;2023-10-31T04:38:36;4.10;;;0.80;;
51288;SDS011;37372;52.294;5.152;2023-10-31T04:41:03;5.38;;;0.80;;
51288;SDS011;37372;52.294;5.152;2023-10-31T04:43:29;9.13;;;1.20;;
51288;SDS011;37372;52.294;5.152;2023-10-31T04:45:54;5.17;;;0.70;;
51288;SDS011;37372;52.294;5.152;2023-10-31T04:48:19;10.50;;;1.00;;
51288;SDS011;37372;52.294;5.152;2023-10-31T04:50:45;4.83;;;0.70;;
51288;SDS011;37372;52.294;5.152;2023-10-31T04:53:10;3.73;;;0.80;;
51288;SDS011;37372;52.294;5.152;2023-10-31T04:55:36;3.88;;;0.70;;
51288;SDS011;37372;52.294;5.152;2023-10-31T04:58:01;6.17;;;0.80;;
51288;SDS011;37372;52.294;5.152;2023-10-31T05:00:27;7.85;;;0.70;;
51288;SDS011;37372;52.294;5.152;2023-10-31T05:02:52;8.70;;;1.00;;
51288;SDS011;37372;52.294;5.152;2023-10-31T05:05:19;4.50;;;0.70;;
51288;SDS011;37372;52.294;5.152;2023-10-31T05:07:44;7.07;;;0.90;;
51288;SDS011;37372;52.294;5.152;2023-10-31T05:10:10;3.33;;;0.70;;
51288;SDS011;37372;52.294;5.152;2023-10-31T05:12:35;2.97;;;0.70;;
51288;SDS011;37372;52.294;5.152;2023-10-31T05:15:01;7.37;;;0.90;;
51288;SDS011;37372;52.294;5.152;2023-10-31T05:17:27;2.53;;;0.80;;
51288;SDS011;37372;52.294;5.152;2023-10-31T05:19:54;4.30;;;0.60;;
51288;SDS011;37372;52.294;5.152;2023-10-31T05:22:20;6.10;;;0.80;;
51288;SDS011;37372;52.294;5.152;2023-10-31T05:24:45;2.88;;;1.00;;
51288;SDS011;37372;52.294;5.152;2023-10-31T05:27:11;7.30;;;1.10;;
51288;SDS011;37372;52.294;5.152;2023-10-31T05:29:38;4.38;;;0.95;;
51288;SDS011;37372;52.294;5.152;2023-10-31T05:32:04;2.70;;;0.73;;
51288;SDS011;37372;52.294;5.152;2023-10-31T05:34:30;4.05;;;0.80;;
51288;SDS011;37372;52.294;5.152;2023-10-31T05:36:55;5.07;;;0.87;;
51288;SDS011;37372;52.294;5.152;2023-10-31T05:39:21;4.50;;;1.00;;
51288;SDS011;37372;52.294;5.152;2023-10-31T05:41:47;4.43;;;0.83;;
51288;SDS011;37372;52.294;5.152;2023-10-31T05:44:12;2.30;;;1.00;;
51288;SDS011;37372;52.294;5.152;2023-10-31T05:46:38;3.13;;;1.00;;
51288;SDS011;37372;52.294;5.152;2023-10-31T05:49:06;2.28;;;0.90;;
51288;SDS011;37372;52.294;5.152;2023-10-31T05:51:32;3.63;;;1.00;;
51288;SDS011;37372;52.294;5.152;2023-10-31T05:53:59;5.03;;;1.00;;
51288;SDS011;37372;52.294;5.152;2023-10-31T05:56:25;2.85;;;0.70;;
51288;SDS011;37372;52.294;5.152;2023-10-31T05:58:50;3.25;;;0.90;;
51288;SDS011;37372;52.294;5.152;2023-10-31T06:01:16;1.30;;;0.83;;
51288;SDS011;37372;52.294;5.152;2023-10-31T06:03:41;3.33;;;1.27;;
51288;SDS011;37372;52.294;5.152;2023-10-31T06:06:08;3.53;;;1.50;;
51288;SDS011;37372;52.294;5.152;2023-10-31T06:08:34;5.93;;;1.50;;
51288;SDS011;37372;52.294;5.152;2023-10-31T06:10:59;5.87;;;2.00;;
51288;SDS011;37372;52.294;5.152;2023-10-31T06:13:25;9.23;;;2.67;;
51288;SDS011;37372;52.294;5.152;2023-10-31T06:15:55;7.23;;;3.10;;
51288;SDS011;37372;52.294;5.152;2023-10-31T06:18:20;10.23;;;3.92;;
51288;SDS011;37372;52.294;5.152;2023-10-31T06:20:46;13.27;;;4.22;;
51288;SDS011;37372;52.294;5.152;2023-10-31T06:23:12;10.07;;;4.57;;
51288;SDS011;37372;52.294;5.152;2023-10-31T06:25:37;13.10;;;5.73;;
51288;SDS011;37372;52.294;5.152;2023-10-31T06:28:03;12.57;;;5.87;;
51288;SDS011;37372;52.294;5.152;2023-10-31T06:30:28;13.98;;;6.75;;
51288;SDS011;37372;52.294;5.152;2023-10-31T06:32:54;12.73;;;6.83;;
51288;SDS011;37372;52.294;5.152;2023-10-31T06:35:19;15.03;;;6.97;;
51288;SDS011;37372;52.294;5.152;2023-10-31T06:37:45;16.70;;;7.00;;
51288;SDS011;37372;52.294;5.152;2023-10-31T06:40:11;14.33;;;6.63;;
51288;SDS011;37372;52.294;5.152;2023-10-31T06:42:36;13.77;;;6.72;;
51288;SDS011;37372;52.294;5.152;2023-10-31T06:45:02;13.10;;;6.63;;
51288;SDS011;37372;52.294;5.152;2023-10-31T06:47:28;15.43;;;6.18;;
51288;SDS011;37372;52.294;5.152;2023-10-31T06:49:53;14.40;;;6.60;;
51288;SDS011;37372;52.294;5.152;2023-10-31T06:52:18;11.17;;;5.83;;
51288;SDS011;37372;52.294;5.152;2023-10-31T06:54:44;12.93;;;5.30;;
51288;SDS011;37372;52.294;5.152;2023-10-31T06:57:09;11.37;;;5.07;;
51288;SDS011;37372;52.294;5.152;2023-10-31T06:59:34;10.27;;;4.60;;
51288;SDS011;37372;52.294;5.152;2023-10-31T07:02:00;9.27;;;4.10;;
51288;SDS011;37372;52.294;5.152;2023-10-31T07:04:25;9.83;;;3.90;;
51288;SDS011;37372;52.294;5.152;2023-10-31T07:06:51;11.73;;;4.30;;
51288;SDS011;37372;52.294;5.152;2023-10-31T07:09:25;13.93;;;4.60;;
51288;SDS011;37372;52.294;5.152;2023-10-31T07:11:51;18.08;;;6.07;;
51288;SDS011;37372;52.294;5.152;2023-10-31T07:14:17;12.93;;;4.70;;
51288;SDS011;37372;52.294;5.152;2023-10-31T07:16:42;21.23;;;5.17;;
51288;SDS011;37372;52.294;5.152;2023-10-31T07:19:11;16.48;;;4.82;;
51288;SDS011;37372;52.294;5.152;2023-10-31T07:21:37;19.58;;;5.78;;
51288;SDS011;37372;52.294;5.152;2023-10-31T07:24:03;16.13;;;5.20;;
51288;SDS011;37372;52.294;5.152;2023-10-31T07:26:28;16.47;;;4.70;;
51288;SDS011;37372;52.294;5.152;2023-10-31T07:28:54;20.43;;;5.37;;
51288;SDS011;37372;52.294;5.152;2023-10-31T07:31:20;22.42;;;6.10;;
51288;SDS011;37372;52.294;5.152;2023-10-31T07:33:45;20.00;;;5.50;;
51288;SDS011;37372;52.294;5.152;2023-10-31T07:36:11;16.83;;;5.35;;
51288;SDS011;37372;52.294;5.152;2023-10-31T07:38:37;18.70;;;5.73;;
51288;SDS011;37372;52.294;5.152;2023-10-31T07:41:02;24.70;;;5.97;;
51288;SDS011;37372;52.294;5.152;2023-10-31T07:43:35;16.65;;;5.55;;
51288;SDS011;37372;52.294;5.152;2023-10-31T07:46:00;17.90;;;5.60;;
51288;SDS011;37372;52.294;5.152;2023-10-31T07:48:25;15.80;;;4.70;;
51288;SDS011;37372;52.294;5.152;2023-10-31T07:50:54;17.60;;;4.73;;
51288;SDS011;37372;52.294;5.152;2023-10-31T07:53:19;10.93;;;4.13;;
51288;SDS011;37372;52.294;5.152;2023-10-31T07:55:44;16.33;;;4.20;;
51288;SDS011;37372;52.294;5.152;2023-10-31T07:58:10;13.83;;;3.77;;
51288;SDS011;37372;52.294;5.152;2023-10-31T08:00:35;12.85;;;3.85;;
51288;SDS011;37372;52.294;5.152;2023-10-31T08:03:01;10.67;;;3.60;;
51288;SDS011;37372;52.294;5.152;2023-10-31T08:05:27;11.30;;;3.88;;
51288;SDS011;37372;52.294;5.152;2023-10-31T08:07:53;18.17;;;3.90;;
51288;SDS011;37372;52.294;5.152;2023-10-31T08:10:19;10.37;;;3.20;;
51288;SDS011;37372;52.294;5.152;2023-10-31T08:12:44;9.07;;;2.90;;
51288;SDS011;37372;52.294;5.152;2023-10-31T08:15:10;13.07;;;3.27;;
51288;SDS011;37372;52.294;5.152;2023-10-31T08:17:35;9.37;;;3.33;;
51288;SDS011;37372;52.294;5.152;2023-10-31T08:20:01;13.73;;;3.40;;
51288;SDS011;37372;52.294;5.152;2023-10-31T08:22:31;15.77;;;3.15;;
51288;SDS011;37372;52.294;5.152;2023-10-31T08:24:57;8.43;;;3.17;;
51288;SDS011;37372;52.294;5.152;2023-10-31T08:27:23;10.07;;;3.63;;
51288;SDS011;37372;52.294;5.152;2023-10-31T08:29:48;9.53;;;3.17;;
51288;SDS011;37372;52.294;5.152;2023-10-31T08:32:13;7.30;;;3.00;;
51288;SDS011;37372;52.294;5.152;2023-10-31T08:34:39;9.57;;;2.90;;
51288;SDS011;37372;52.294;5.152;2023-10-31T08:37:04;7.70;;;2.67;;
51288;SDS011;37372;52.294;5.152;2023-10-31T08:39:30;11.63;;;3.20;;
51288;SDS011;37372;52.294;5.152;2023-10-31T08:41:56;10.60;;;2.87;;
51288;SDS011;37372;52.294;5.152;2023-10-31T08:44:22;10.18;;;2.92;;
51288;SDS011;37372;52.294;5.152;2023-10-31T08:46:49;8.50;;;3.13;;
51288;SDS011;37372;52.294;5.152;2023-10-31T08:49:15;9.98;;;3.45;;
51288;SDS011;37372;52.294;5.152;2023-10-31T08:51:41;11.00;;;3.28;;
51288;SDS011;37372;52.294;5.152;2023-10-31T08:54:07;11.77;;;3.50;;
51288;SDS011;37372;52.294;5.152;2023-10-31T08:56:34;10.70;;;3.80;;
51288;SDS011;37372;52.294;5.152;2023-10-31T08:59:00;12.05;;;3.50;;
51288;SDS011;37372;52.294;5.152;2023-10-31T09:01:26;10.73;;;3.40;;
51288;SDS011;37372;52.294;5.152;2023-10-31T09:03:52;9.63;;;3.30;;
51288;SDS011;37372;52.294;5.152;2023-10-31T09:06:18;7.90;;;3.57;;
51288;SDS011;37372;52.294;5.152;2023-10-31T09:08:44;12.57;;;3.60;;
51288;SDS011;37372;52.294;5.152;2023-10-31T09:11:10;9.38;;;3.35;;
51288;SDS011;37372;52.294;5.152;2023-10-31T09:13:36;10.67;;;3.63;;
51288;SDS011;37372;52.294;5.152;2023-10-31T09:16:01;11.00;;;3.43;;
51288;SDS011;37372;52.294;5.152;2023-10-31T09:18:26;12.70;;;3.17;;
51288;SDS011;37372;52.294;5.152;2023-10-31T09:20:52;10.20;;;3.33;;
51288;SDS011;37372;52.294;5.152;2023-10-31T09:23:18;10.77;;;3.80;;
51288;SDS011;37372;52.294;5.152;2023-10-31T09:25:44;7.13;;;2.97;;
51288;SDS011;37372;52.294;5.152;2023-10-31T09:28:09;8.73;;;3.17;;
51288;SDS011;37372;52.294;5.152;2023-10-31T09:30:35;12.03;;;3.20;;
51288;SDS011;37372;52.294;5.152;2023-10-31T09:33:00;13.37;;;3.13;;
51288;SDS011;37372;52.294;5.152;2023-10-31T09:35:26;13.27;;;3.42;;
51288;SDS011;37372;52.294;5.152;2023-10-31T09:37:52;15.40;;;3.50;;
51288;SDS011;37372;52.294;5.152;2023-10-31T09:40:18;10.75;;;3.50;;
51288;SDS011;37372;52.294;5.152;2023-10-31T09:42:44;10.37;;;3.20;;
51288;SDS011;37372;52.294;5.152;2023-10-31T09:45:11;11.20;;;2.90;;
51288;SDS011;37372;52.294;5.152;2023-10-31T09:47:37;12.13;;;3.30;;
51288;SDS011;37372;52.294;5.152;2023-10-31T09:50:03;10.33;;;3.10;;
51288;SDS011;37372;52.294;5.152;2023-10-31T09:52:29;12.45;;;4.32;;
51288;SDS011;37372;52.294;5.152;2023-10-31T09:54:54;13.90;;;4.43;;
51288;SDS011;37372;52.294;5.152;2023-10-31T09:57:20;15.50;;;4.33;;
51288;SDS011;37372;52.294;5.152;2023-10-31T09:59:46;12.52;;;3.53;;
51288;SDS011;37372;52.294;5.152;2023-10-31T10:02:11;14.80;;;4.50;;
51288;SDS011;37372;52.294;5.152;2023-10-31T10:04:37;11.87;;;4.00;;
51288;SDS011;37372;52.294;5.152;2023-10-31T10:07:02;11.80;;;3.60;;
51288;SDS011;37372;52.294;5.152;2023-10-31T10:09:29;9.02;;;3.42;;
51288;SDS011;37372;52.294;5.152;2023-10-31T10:11:56;12.27;;;3.63;;
51288;SDS011;37372;52.294;5.152;2023-10-31T10:14:24;10.57;;;3.42;;
51288;SDS011;37372;52.294;5.152;2023-10-31T10:16:51;14.87;;;3.90;;
51288;SDS011;37372;52.294;5.152;2023-10-31T10:19:17;11.07;;;3.53;;
51288;SDS011;37372;52.294;5.152;2023-10-31T10:21:49;8.53;;;2.97;;
51288;SDS011;37372;52.294;5.152;2023-10-31T10:24:20;7.15;;;2.78;;
51288;SDS011;37372;52.294;5.152;2023-10-31T10:26:46;6.80;;;2.58;;
51288;SDS011;37372;52.294;5.152;2023-10-31T10:29:13;9.95;;;3.05;;
51288;SDS011;37372;52.294;5.152;2023-10-31T10:31:38;11.30;;;3.13;;
51288;SDS011;37372;52.294;5.152;2023-10-31T10:34:05;8.75;;;2.70;;
51288;SDS011;37372;52.294;5.152;2023-10-31T10:36:32;5.63;;;2.13;;
51288;SDS011;37372;52.294;5.152;2023-10-31T10:38:58;8.18;;;2.10;;
51288;SDS011;37372;52.294;5.152;2023-10-31T10:41:28;5.45;;;1.70;;
51288;SDS011;37372;52.294;5.152;2023-10-31T10:43:55;4.67;;;2.10;;
51288;SDS011;37372;52.294;5.152;2023-10-31T10:46:24;4.22;;;1.95;;
51288;SDS011;37372;52.294;5.152;2023-10-31T10:48:50;10.10;;;1.80;;
51288;SDS011;37372;52.294;5.152;2023-10-31T10:51:28;3.45;;;1.50;;
51288;SDS011;37372;52.294;5.152;2023-10-31T10:54:19;4.07;;;1.10;;
51288;SDS011;37372;52.294;5.152;2023-10-31T10:56:53;3.63;;;1.30;;
51288;SDS011;37372;52.294;5.152;2023-10-31T11:02:27;6.25;;;1.45;;
51288;SDS011;37372;52.294;5.152;2023-10-31T11:04:57;2.90;;;1.20;;
51288;SDS011;37372;52.294;5.152;2023-10-31T11:07:25;1.75;;;1.00;;
51288;SDS011;37372;52.294;5.152;2023-10-31T11:09:55;2.73;;;1.00;;
51288;SDS011;37372;52.294;5.152;2023-10-31T11:12:21;2.15;;;0.90;;
51288;SDS011;37372;52.294;5.152;2023-10-31T11:14:47;2.97;;;1.10;;
51288;SDS011;37372;52.294;5.152;2023-10-31T11:19:57;4.38;;;1.10;;
51288;SDS011;37372;52.294;5.152;2023-10-31T11:22:24;3.80;;;0.70;;
51288;SDS011;37372;52.294;5.152;2023-10-31T11:24:49;6.05;;;1.00;;
51288;SDS011;37372;52.294;5.152;2023-10-31T11:27:16;4.75;;;0.90;;
51288;SDS011;37372;52.294;5.152;2023-10-31T11:29:44;4.07;;;0.80;;
51288;SDS011;37372;52.294;5.152;2023-10-31T11:32:10;5.88;;;0.88;;
51288;SDS011;37372;52.294;5.152;2023-10-31T11:34:37;3.30;;;1.17;;
51288;SDS011;37372;52.294;5.152;2023-10-31T11:40:33;2.83;;;0.97;;
51288;SDS011;37372;52.294;5.152;2023-10-31T11:42:52;4.55;;;0.82;;
51288;SDS011;37372;52.294;5.152;2023-10-31T11:47:54;1.77;;;0.90;;
51288;SDS011;37372;52.294;5.152;2023-10-31T11:50:21;5.53;;;1.13;;
51288;SDS011;37372;52.294;5.152;2023-10-31T11:55:33;4.50;;;0.90;;
51288;SDS011;37372;52.294;5.152;2023-10-31T12:01:05;2.08;;;1.00;;
51288;SDS011;37372;52.294;5.152;2023-10-31T12:03:39;3.05;;;1.00;;
51288;SDS011;37372;52.294;5.152;2023-10-31T12:06:08;4.70;;;0.97;;
51288;SDS011;37372;52.294;5.152;2023-10-31T12:08:38;3.47;;;1.02;;
51288;SDS011;37372;52.294;5.152;2023-10-31T12:11:08;4.78;;;1.10;;
51288;SDS011;37372;52.294;5.152;2023-10-31T12:13:39;2.33;;;1.48;;
51288;SDS011;37372;52.294;5.152;2023-10-31T12:16:06;6.68;;;1.20;;
51288;SDS011;37372;52.294;5.152;2023-10-31T12:18:33;3.07;;;1.13;;
51288;SDS011;37372;52.294;5.152;2023-10-31T12:21:04;3.47;;;0.93;;
51288;SDS011;37372;52.294;5.152;2023-10-31T12:23:29;3.72;;;0.73;;
51288;SDS011;37372;52.294;5.152;2023-10-31T12:25:55;3.57;;;0.80;;
51288;SDS011;37372;52.294;5.152;2023-10-31T12:28:22;3.63;;;1.10;;
51288;SDS011;37372;52.294;5.152;2023-10-31T12:30:50;4.90;;;1.02;;
51288;SDS011;37372;52.294;5.152;2023-10-31T12:33:21;1.48;;;0.70;;
51288;SDS011;37372;52.294;5.152;2023-10-31T12:35:50;5.50;;;1.50;;
51288;SDS011;37372;52.294;5.152;2023-10-31T12:38:18;5.63;;;1.80;;
51288;SDS011;37372;52.294;5.152;2023-10-31T12:40:45;6.43;;;1.70;;
51288;SDS011;37372;52.294;5.152;2023-10-31T12:43:11;7.07;;;1.92;;
51288;SDS011;37372;52.294;5.152;2023-10-31T12:45:36;8.73;;;2.63;;
51288;SDS011;37372;52.294;5.152;2023-10-31T12:50:34;7.78;;;2.47;;
51288;SDS011;37372;52.294;5.152;2023-10-31T12:53:07;7.03;;;2.17;;
51288;SDS011;37372;52.294;5.152;2023-10-31T12:55:40;5.40;;;2.20;;
51288;SDS011;37372;52.294;5.152;2023-10-31T12:58:07;9.65;;;2.58;;
51288;SDS011;37372;52.294;5.152;2023-10-31T13:00:35;7.70;;;2.83;;
51288;SDS011;37372;52.294;5.152;2023-10-31T13:03:02;7.17;;;2.43;;
51288;SDS011;37372;52.294;5.152;2023-10-31T13:05:29;7.72;;;2.88;;
51288;SDS011;37372;52.294;5.152;2023-10-31T13:07:56;7.47;;;2.30;;
51288;SDS011;37372;52.294;5.152;2023-10-31T13:10:26;6.43;;;2.08;;
51288;SDS011;37372;52.294;5.152;2023-10-31T13:12:52;6.57;;;2.40;;
51288;SDS011;37372;52.294;5.152;2023-10-31T13:15:19;4.43;;;2.43;;
51288;SDS011;37372;52.294;5.152;2023-10-31T13:17:47;7.38;;;2.55;;
51288;SDS011;37372;52.294;5.152;2023-10-31T13:20:13;6.97;;;2.58;;
51288;SDS011;37372;52.294;5.152;2023-10-31T13:22:41;6.72;;;2.80;;
51288;SDS011;37372;52.294;5.152;2023-10-31T13:25:08;7.33;;;2.80;;
51288;SDS011;37372;52.294;5.152;2023-10-31T13:27:39;7.68;;;2.67;;
51288;SDS011;37372;52.294;5.152;2023-10-31T13:30:07;6.65;;;2.83;;
51288;SDS011;37372;52.294;5.152;2023-10-31T13:32:33;4.97;;;3.20;;
51288;SDS011;37372;52.294;5.152;2023-10-31T13:35:00;8.30;;;3.30;;
51288;SDS011;37372;52.294;5.152;2023-10-31T13:37:25;6.97;;;3.40;;
51288;SDS011;37372;52.294;5.152;2023-10-31T13:39:51;10.80;;;3.90;;
51288;SDS011;37372;52.294;5.152;2023-10-31T13:42:17;10.18;;;4.60;;
51288;SDS011;37372;52.294;5.152;2023-10-31T13:44:43;10.93;;;5.03;;
51288;SDS011;37372;52.294;5.152;2023-10-31T13:47:09;14.03;;;6.27;;
51288;SDS011;37372;52.294;5.152;2023-10-31T13:49:35;14.07;;;6.40;;
51288;SDS011;37372;52.294;5.152;2023-10-31T13:52:03;16.95;;;6.70;;
51288;SDS011;37372;52.294;5.152;2023-10-31T13:54:30;23.23;;;8.27;;
51288;SDS011;37372;52.294;5.152;2023-10-31T13:56:55;24.73;;;9.77;;
51288;SDS011;37372;52.294;5.152;2023-10-31T13:59:20;27.83;;;9.97;;
51288;SDS011;37372;52.294;5.152;2023-10-31T14:01:46;34.05;;;11.35;;
51288;SDS011;37372;52.294;5.152;2023-10-31T14:04:12;27.67;;;10.60;;
51288;SDS011;37372;52.294;5.152;2023-10-31T14:06:42;30.38;;;11.32;;
51288;SDS011;37372;52.294;5.152;2023-10-31T14:09:08;28.02;;;10.70;;
51288;SDS011;37372;52.294;5.152;2023-10-31T14:11:35;29.63;;;10.77;;
51288;SDS011;37372;52.294;5.152;2023-10-31T14:14:01;30.85;;;10.43;;
51288;SDS011;37372;52.294;5.152;2023-10-31T14:16:32;29.67;;;11.25;;
51288;SDS011;37372;52.294;5.152;2023-10-31T14:18:58;29.75;;;11.27;;
51288;SDS011;37372;52.294;5.152;2023-10-31T14:21:23;26.07;;;10.43;;
51288;SDS011;37372;52.294;5.152;2023-10-31T14:23:50;31.00;;;10.82;;
51288;SDS011;37372;52.294;5.152;2023-10-31T14:26:21;30.33;;;10.32;;
51288;SDS011;37372;52.294;5.152;2023-10-31T14:28:48;21.77;;;8.60;;
51288;SDS011;37372;52.294;5.152;2023-10-31T14:31:13;20.60;;;8.02;;
51288;SDS011;37372;52.294;5.152;2023-10-31T14:33:39;15.98;;;6.43;;
51288;SDS011;37372;52.294;5.152;2023-10-31T14:36:05;18.73;;;6.80;;
51288;SDS011;37372;52.294;5.152;2023-10-31T14:38:31;17.15;;;6.97;;
51288;SDS011;37372;52.294;5.152;2023-10-31T14:40:57;18.87;;;7.60;;
51288;SDS011;37372;52.294;5.152;2023-10-31T14:43:22;21.02;;;7.90;;
51288;SDS011;37372;52.294;5.152;2023-10-31T14:45:48;18.60;;;7.33;;
51288;SDS011;37372;52.294;5.152;2023-10-31T14:48:13;21.35;;;7.97;;
51288;SDS011;37372;52.294;5.152;2023-10-31T14:50:39;25.47;;;8.67;;
51288;SDS011;37372;52.294;5.152;2023-10-31T14:53:05;27.23;;;10.87;;
51288;SDS011;37372;52.294;5.152;2023-10-31T14:55:30;38.75;;;13.63;;